Time;durP1;ratioP1;P1;durP2;ratioP2;P2;SDS_P1;SDS_P2;PMS_P1;PMS_P2;Temp;Humidity;BMP_temperature;BMP_pressure;BME280_temperature;BME280_humidity;BME280_pressure;Samples;Min_cycle;Max_cycle;Signal;HPM_P1;HPM_P2
2022/04/21 00:00:35;;;;;;;4.43;3.17;;;;;;;;;;5021898;28;20087;-62
2022/04/21 00:03:02;;;;;;;6.78;3.50;;;;;;;;;;5025894;28;20061;-62
2022/04/21 00:05:28;;;;;;;7.57;3.47;;;;;;;;;;5026484;28;20114;-60
2022/04/21 00:07:55;;;;;;;5.78;3.05;;;;;;;;;;5025935;28;20044;-59
2022/04/21 00:10:21;;;;;;;6.57;3.20;;;;;;;;;;5023986;28;20018;-61
2022/04/21 00:12:47;;;;;;;6.45;3.28;;;;;;;;;;5030452;28;20742;-62
2022/04/21 00:15:13;;;;;;;4.18;3.05;;;;;;;;;;5031026;28;20112;-60
2022/04/21 00:17:39;;;;;;;6.13;3.22;;;;;;;;;;5026142;28;20044;-62
2022/04/21 00:20:06;;;;;;;6.57;3.05;;;;;;;;;;5029086;28;20288;-62
2022/04/21 00:25:16;;;;;;;6.22;3.65;;;;;;;;;;5025150;28;20040;-60
2022/04/21 00:27:43;;;;;;;5.45;3.13;;;;;;;;;;5027262;28;20037;-59
2022/04/21 00:30:09;;;;;;;5.88;3.10;;;;;;;;;;5025446;28;20036;-60
2022/04/21 00:32:36;;;;;;;4.47;2.83;;;;;;;;;;5028148;28;20017;-62
2022/04/21 00:35:03;;;;;;;4.30;2.97;;;;;;;;;;5025315;28;20036;-60
2022/04/21 00:37:29;;;;;;;6.72;3.30;;;;;;;;;;5026437;28;20640;-62
2022/04/21 00:39:55;;;;;;;5.47;3.05;;;;;;;;;;5025609;28;20606;-62
2022/04/21 00:42:21;;;;;;;5.95;3.22;;;;;;;;;;5026523;28;20026;-62
2022/04/21 00:44:49;;;;;;;7.57;3.30;;;;;;;;;;5027763;28;20424;-62
2022/04/21 00:47:16;;;;;;;6.43;3.40;;;;;;;;;;5025033;28;20056;-62
2022/04/21 00:49:43;;;;;;;4.75;3.08;;;;;;;;;;5028735;28;20029;-61
2022/04/21 00:52:10;;;;;;;6.60;3.47;;;;;;;;;;5024796;28;20037;-59
2022/04/21 00:54:35;;;;;;;4.85;3.17;;;;;;;;;;5023456;28;20396;-62
2022/04/21 00:57:02;;;;;;;5.68;3.58;;;;;;;;;;5040656;28;20025;-62
2022/04/21 00:59:28;;;;;;;5.88;3.40;;;;;;;;;;5025165;28;20029;-61
2022/04/21 01:04:39;;;;;;;5.10;3.20;;;;;;;;;;5027748;28;20036;-59
2022/04/21 01:07:08;;;;;;;10.05;3.65;;;;;;;;;;5029349;28;20064;-61
2022/04/21 01:09:37;;;;;;;7.25;3.53;;;;;;;;;;5025190;28;20812;-60
2022/04/21 01:12:08;;;;;;;7.38;3.67;;;;;;;;;;5023041;28;20037;-60
2022/04/21 01:14:37;;;;;;;7.28;3.70;;;;;;;;;;5025813;28;20527;-61
2022/04/21 01:17:03;;;;;;;7.85;3.50;;;;;;;;;;5026152;28;20210;-59
2022/04/21 01:19:29;;;;;;;6.63;3.70;;;;;;;;;;5024964;28;20025;-62
2022/04/21 01:21:55;;;;;;;6.38;3.53;;;;;;;;;;5025038;28;20246;-62
2022/04/21 01:24:21;;;;;;;5.53;3.65;;;;;;;;;;5023623;28;20474;-61
2022/04/21 01:26:48;;;;;;;7.90;4.07;;;;;;;;;;5023794;28;20040;-60
2022/04/21 01:29:14;;;;;;;5.45;3.90;;;;;;;;;;5030584;28;20044;-61
2022/04/21 01:31:40;;;;;;;6.57;3.70;;;;;;;;;;5022753;28;20033;-58
2022/04/21 01:34:06;;;;;;;6.85;3.72;;;;;;;;;;5024845;28;20048;-60
2022/04/21 01:36:32;;;;;;;7.40;3.63;;;;;;;;;;5022516;28;20365;-62
2022/04/21 01:41:42;;;;;;;12.57;4.35;;;;;;;;;;5020052;28;20431;-62
2022/04/21 01:44:08;;;;;;;7.05;3.75;;;;;;;;;;5030388;28;20049;-60
2022/04/21 01:46:34;;;;;;;6.28;4.13;;;;;;;;;;5024951;28;20037;-62
2022/04/21 01:49:00;;;;;;;5.95;4.03;;;;;;;;;;5023658;28;20550;-61
2022/04/21 01:51:26;;;;;;;7.70;3.70;;;;;;;;;;5025242;28;20376;-61
2022/04/21 01:53:52;;;;;;;6.90;3.63;;;;;;;;;;5039384;28;20401;-61
2022/04/21 01:56:18;;;;;;;4.07;3.42;;;;;;;;;;5024351;28;20028;-62
2022/04/21 01:58:45;;;;;;;8.82;3.70;;;;;;;;;;5031830;28;20025;-60
2022/04/21 02:01:11;;;;;;;6.72;3.80;;;;;;;;;;5024325;28;20063;-57
2022/04/21 02:03:37;;;;;;;4.85;3.35;;;;;;;;;;5024193;28;20032;-60
2022/04/21 02:06:03;;;;;;;7.40;3.55;;;;;;;;;;5024632;28;20596;-60
2022/04/21 02:08:29;;;;;;;6.50;3.47;;;;;;;;;;5024544;28;20029;-62
2022/04/21 02:10:55;;;;;;;5.30;3.40;;;;;;;;;;5022422;28;20400;-60
2022/04/21 02:13:21;;;;;;;7.57;3.63;;;;;;;;;;5023872;28;20029;-60
2022/04/21 02:15:47;;;;;;;6.13;3.55;;;;;;;;;;5027832;28;20461;-62
2022/04/21 02:18:14;;;;;;;5.32;3.33;;;;;;;;;;5024112;28;20572;-62
2022/04/21 02:20:40;;;;;;;5.00;3.40;;;;;;;;;;5025655;28;20346;-62
2022/04/21 02:23:06;;;;;;;4.10;3.33;;;;;;;;;;5020270;28;20377;-61
2022/04/21 02:25:32;;;;;;;6.47;3.63;;;;;;;;;;5018529;28;20389;-62
2022/04/21 02:27:58;;;;;;;5.30;3.63;;;;;;;;;;5026497;28;20034;-61
2022/04/21 02:30:24;;;;;;;7.25;3.65;;;;;;;;;;5023556;28;20488;-59
2022/04/21 02:32:50;;;;;;;6.70;3.83;;;;;;;;;;5022665;28;20056;-62
2022/04/21 02:35:16;;;;;;;4.57;3.20;;;;;;;;;;5021907;28;20029;-60
2022/04/21 02:37:43;;;;;;;4.07;3.30;;;;;;;;;;5025172;28;20099;-62
2022/04/21 02:40:10;;;;;;;5.32;3.38;;;;;;;;;;5023534;28;20041;-61
2022/04/21 02:42:38;;;;;;;5.30;3.80;;;;;;;;;;5025391;28;20994;-60
2022/04/21 02:45:05;;;;;;;6.47;3.60;;;;;;;;;;5027059;28;20029;-59
2022/04/21 02:47:31;;;;;;;5.00;3.58;;;;;;;;;;5023470;28;20528;-61
2022/04/21 02:49:57;;;;;;;5.38;3.65;;;;;;;;;;5027293;28;20455;-62
2022/04/21 02:52:23;;;;;;;7.40;3.70;;;;;;;;;;5021533;28;20038;-62
2022/04/21 02:57:34;;;;;;;7.45;4.00;;;;;;;;;;5029055;28;20040;-59
2022/04/21 03:00:01;;;;;;;7.28;4.13;;;;;;;;;;5022809;28;20468;-60
2022/04/21 03:02:27;;;;;;;6.18;4.05;;;;;;;;;;5023126;28;20431;-60
2022/04/21 03:04:54;;;;;;;8.63;4.55;;;;;;;;;;5021492;28;20029;-60
2022/04/21 03:07:22;;;;;;;8.00;4.57;;;;;;;;;;5028094;28;20035;-61
2022/04/21 03:09:48;;;;;;;6.55;4.43;;;;;;;;;;5023013;28;20068;-62
2022/04/21 03:12:14;;;;;;;7.75;4.90;;;;;;;;;;5019649;28;20306;-61
2022/04/21 03:14:41;;;;;;;8.68;4.45;;;;;;;;;;5025532;28;20075;-60
2022/04/21 03:17:09;;;;;;;7.03;4.32;;;;;;;;;;5022119;28;20033;-60
2022/04/21 03:19:35;;;;;;;9.85;4.72;;;;;;;;;;5023947;28;20059;-61
2022/04/21 03:24:47;;;;;;;10.02;4.82;;;;;;;;;;5021336;28;20106;-62
2022/04/21 03:27:13;;;;;;;7.82;5.57;;;;;;;;;;5025025;28;20033;-59
2022/04/21 03:29:39;;;;;;;8.88;5.03;;;;;;;;;;5022713;28;20026;-61
2022/04/21 03:32:07;;;;;;;12.65;6.32;;;;;;;;;;5022482;28;20244;-59
2022/04/21 03:34:33;;;;;;;11.68;5.78;;;;;;;;;;5022607;28;20045;-60
2022/04/21 03:36:59;;;;;;;11.32;5.60;;;;;;;;;;5024224;28;20369;-61
2022/04/21 03:39:25;;;;;;;15.85;6.10;;;;;;;;;;5020778;28;20029;-59
2022/04/21 03:41:53;;;;;;;9.32;5.55;;;;;;;;;;5025489;28;20750;-59
2022/04/21 03:44:22;;;;;;;14.63;5.25;;;;;;;;;;5022306;28;20052;-59
2022/04/21 03:46:48;;;;;;;10.57;5.60;;;;;;;;;;5036362;28;20047;-62
2022/04/21 03:49:14;;;;;;;11.48;5.75;;;;;;;;;;5026651;28;20418;-62
2022/04/21 03:51:40;;;;;;;15.05;5.47;;;;;;;;;;5022013;28;20432;-62
2022/04/21 03:54:06;;;;;;;13.05;5.43;;;;;;;;;;5027827;28;20099;-62
2022/04/21 03:56:33;;;;;;;12.05;5.70;;;;;;;;;;5024772;28;20029;-62
2022/04/21 03:58:59;;;;;;;14.40;6.07;;;;;;;;;;5022169;28;20026;-62
2022/04/21 04:01:25;;;;;;;11.98;5.88;;;;;;;;;;5021388;28;20454;-62
2022/04/21 04:03:51;;;;;;;10.43;5.05;;;;;;;;;;5027366;28;20034;-62
2022/04/21 04:11:47;;;;;;;10.68;6.00;;;;;;;;;;5021470;28;20116;-61
2022/04/21 04:14:13;;;;;;;11.85;6.20;;;;;;;;;;5021911;28;20034;-61
2022/04/21 04:16:39;;;;;;;10.95;5.50;;;;;;;;;;5022437;28;20080;-59
2022/04/21 04:19:10;;;;;;;10.40;5.90;;;;;;;;;;5020002;28;20441;-62
2022/04/21 04:21:36;;;;;;;10.10;5.57;;;;;;;;;;5021335;28;20266;-62
2022/04/21 04:24:03;;;;;;;15.73;6.03;;;;;;;;;;5021724;28;20544;-61
2022/04/21 04:26:29;;;;;;;11.77;5.32;;;;;;;;;;5022576;28;20068;-62
2022/04/21 04:28:55;;;;;;;12.93;6.05;;;;;;;;;;5024955;28;20572;-62
2022/04/21 04:31:21;;;;;;;12.77;6.22;;;;;;;;;;5021804;28;20029;-62
2022/04/21 04:33:46;;;;;;;11.48;6.43;;;;;;;;;;5018219;28;20038;-60
2022/04/21 04:36:16;;;;;;;13.43;6.40;;;;;;;;;;5022056;28;20022;-62
2022/04/21 04:38:42;;;;;;;11.73;6.38;;;;;;;;;;5024565;28;20448;-61
2022/04/21 04:43:53;;;;;;;13.27;5.93;;;;;;;;;;5020860;28;20649;-60
2022/04/21 04:49:05;;;;;;;10.95;5.80;;;;;;;;;;5022907;28;20044;-62
2022/04/21 04:51:31;;;;;;;14.18;5.93;;;;;;;;;;5027814;28;20026;-60
2022/04/21 04:53:57;;;;;;;10.85;5.97;;;;;;;;;;5031429;28;20614;-60
2022/04/21 04:56:24;;;;;;;10.25;5.18;;;;;;;;;;5024557;28;20026;-60
2022/04/21 04:58:50;;;;;;;12.00;5.70;;;;;;;;;;5025416;28;20017;-62
2022/04/21 05:01:32;;;;;;;14.27;5.47;;;;;;;;;;5025499;28;20029;-61
2022/04/21 05:04:09;;;;;;;9.18;5.60;;;;;;;;;;5030517;28;20029;-62
2022/04/21 05:06:36;;;;;;;11.77;4.93;;;;;;;;;;5024276;28;20133;-62
2022/04/21 05:09:02;;;;;;;11.10;4.75;;;;;;;;;;5028545;28;20059;-62
2022/04/21 05:11:28;;;;;;;6.78;4.85;;;;;;;;;;5023821;28;20025;-62
2022/04/21 05:13:54;;;;;;;10.20;4.75;;;;;;;;;;5025223;28;20429;-59
2022/04/21 05:16:20;;;;;;;8.98;4.93;;;;;;;;;;5025828;28;20033;-61
2022/04/21 05:18:47;;;;;;;9.50;4.57;;;;;;;;;;5027224;28;20062;-59
2022/04/21 05:21:13;;;;;;;10.15;5.22;;;;;;;;;;5025101;28;20021;-60
2022/04/21 05:23:40;;;;;;;8.25;5.05;;;;;;;;;;5028180;28;20033;-60
2022/04/21 05:26:06;;;;;;;9.48;5.10;;;;;;;;;;5020905;28;20037;-59
2022/04/21 05:28:32;;;;;;;8.90;5.35;;;;;;;;;;5020437;28;20052;-58
2022/04/21 05:30:58;;;;;;;10.63;5.28;;;;;;;;;;5024904;28;20095;-61
2022/04/21 05:33:25;;;;;;;14.25;5.65;;;;;;;;;;5026869;28;20029;-61
2022/04/21 05:35:52;;;;;;;15.50;5.55;;;;;;;;;;5024486;28;20112;-63
2022/04/21 05:38:20;;;;;;;8.45;5.18;;;;;;;;;;5027260;28;20109;-62
2022/04/21 05:40:46;;;;;;;12.95;5.90;;;;;;;;;;5024841;28;20021;-62
2022/04/21 05:43:12;;;;;;;8.80;5.05;;;;;;;;;;5025593;28;20093;-60
2022/04/21 05:45:38;;;;;;;10.77;5.18;;;;;;;;;;5024361;28;20022;-63
2022/04/21 05:48:05;;;;;;;13.75;5.30;;;;;;;;;;5024320;28;20515;-62
2022/04/21 05:50:31;;;;;;;9.93;5.35;;;;;;;;;;5029982;28;20401;-59
2022/04/21 05:52:58;;;;;;;12.70;5.38;;;;;;;;;;5026628;28;20029;-61
2022/04/21 05:55:25;;;;;;;11.32;5.32;;;;;;;;;;5024304;28;20041;-60
2022/04/21 05:57:51;;;;;;;13.02;5.90;;;;;;;;;;5025650;28;20029;-59
2022/04/21 06:00:17;;;;;;;13.43;5.75;;;;;;;;;;5022786;28;20028;-62
2022/04/21 06:02:43;;;;;;;16.33;6.07;;;;;;;;;;5024828;28;20131;-62
2022/04/21 06:05:09;;;;;;;11.98;5.60;;;;;;;;;;5024153;28;20083;-60
2022/04/21 06:07:35;;;;;;;11.50;6.00;;;;;;;;;;5024263;28;20040;-62
2022/04/21 06:10:01;;;;;;;13.85;5.85;;;;;;;;;;5023679;28;20401;-59
2022/04/21 06:12:27;;;;;;;15.93;6.05;;;;;;;;;;5019870;28;20040;-60
2022/04/21 06:14:53;;;;;;;16.67;6.00;;;;;;;;;;5025785;28;20100;-59
2022/04/21 06:17:19;;;;;;;15.50;5.65;;;;;;;;;;5023858;28;20035;-60
2022/04/21 06:19:45;;;;;;;15.70;6.05;;;;;;;;;;5026970;28;20112;-59
2022/04/21 06:22:11;;;;;;;9.73;5.63;;;;;;;;;;5023339;28;20021;-60
2022/04/21 06:24:38;;;;;;;9.95;5.90;;;;;;;;;;5021691;28;20036;-61
2022/04/21 06:27:04;;;;;;;11.13;5.47;;;;;;;;;;5033612;28;20034;-62
2022/04/21 06:29:30;;;;;;;13.57;5.97;;;;;;;;;;5023613;28;20033;-60
2022/04/21 06:31:56;;;;;;;12.25;5.53;;;;;;;;;;5023333;28;20497;-62
2022/04/21 06:34:22;;;;;;;12.15;5.18;;;;;;;;;;5031047;28;20022;-61
2022/04/21 06:36:51;;;;;;;10.35;4.80;;;;;;;;;;5038308;28;20021;-61
2022/04/21 06:39:17;;;;;;;9.00;4.88;;;;;;;;;;5024171;28;20125;-58
2022/04/21 06:41:43;;;;;;;8.20;5.18;;;;;;;;;;5023308;28;20792;-61
2022/04/21 06:49:38;;;;;;;7.40;4.63;;;;;;;;;;5023140;28;20040;-61
2022/04/21 06:52:05;;;;;;;9.65;4.50;;;;;;;;;;5019263;28;20034;-59
2022/04/21 06:54:31;;;;;;;6.80;4.70;;;;;;;;;;5022743;28;20527;-61
2022/04/21 06:56:57;;;;;;;8.55;4.80;;;;;;;;;;5022339;28;20013;-59
2022/04/21 06:59:23;;;;;;;8.48;4.78;;;;;;;;;;5023100;28;20026;-62
2022/04/21 07:01:49;;;;;;;7.60;4.18;;;;;;;;;;5022962;28;20044;-60
2022/04/21 07:04:15;;;;;;;9.02;5.35;;;;;;;;;;5029602;28;20036;-61
2022/04/21 07:06:41;;;;;;;9.82;5.18;;;;;;;;;;5020565;28;20500;-62
2022/04/21 07:09:07;;;;;;;13.23;5.60;;;;;;;;;;5021342;28;20062;-62
2022/04/21 07:11:33;;;;;;;8.20;5.13;;;;;;;;;;5020381;28;20484;-60
2022/04/21 07:13:59;;;;;;;10.02;5.00;;;;;;;;;;5022768;28;20027;-61
2022/04/21 07:16:25;;;;;;;12.02;5.47;;;;;;;;;;5021949;28;20033;-61
2022/04/21 07:18:53;;;;;;;6.90;5.20;;;;;;;;;;5021692;28;20456;-60
2022/04/21 07:21:18;;;;;;;7.07;5.30;;;;;;;;;;5016077;28;20022;-60
2022/04/21 07:23:44;;;;;;;12.57;5.22;;;;;;;;;;5030812;28;20036;-60
2022/04/21 07:26:10;;;;;;;10.73;5.28;;;;;;;;;;5022276;28;20065;-62
2022/04/21 07:28:36;;;;;;;7.43;4.95;;;;;;;;;;5028420;28;20516;-62
2022/04/21 07:31:02;;;;;;;10.50;5.22;;;;;;;;;;5020839;28;20481;-62
2022/04/21 07:33:28;;;;;;;12.45;5.03;;;;;;;;;;5025084;28;20053;-59
2022/04/21 07:35:54;;;;;;;8.45;4.85;;;;;;;;;;5009051;28;20374;-60
2022/04/21 07:38:21;;;;;;;28.67;6.30;;;;;;;;;;5010151;28;20061;-61
2022/04/21 07:40:50;;;;;;;11.05;5.05;;;;;;;;;;5024057;28;20096;-62
2022/04/21 07:43:16;;;;;;;8.55;5.18;;;;;;;;;;5023856;28;20060;-62
2022/04/21 07:45:44;;;;;;;10.95;5.05;;;;;;;;;;5036964;28;20112;-61
2022/04/21 07:48:10;;;;;;;10.38;4.88;;;;;;;;;;5021735;28;20025;-60
2022/04/21 07:50:36;;;;;;;11.98;6.22;;;;;;;;;;5021521;28;20025;-57
2022/04/21 07:53:15;;;;;;;10.73;5.28;;;;;;;;;;5023296;28;20112;-60
2022/04/21 07:55:42;;;;;;;9.27;4.85;;;;;;;;;;5019883;28;20393;-59
2022/04/21 07:58:08;;;;;;;11.88;4.45;;;;;;;;;;5023734;28;20020;-60
2022/04/21 08:00:36;;;;;;;9.63;4.82;;;;;;;;;;5020752;28;20402;-60
2022/04/21 08:03:03;;;;;;;8.23;4.38;;;;;;;;;;5022002;28;20288;-59
2022/04/21 08:05:30;;;;;;;10.30;4.40;;;;;;;;;;5025378;28;20030;-59
2022/04/21 08:07:57;;;;;;;6.50;4.55;;;;;;;;;;5021597;28;20440;-61
2022/04/21 08:10:24;;;;;;;6.57;4.40;;;;;;;;;;5024399;28;20458;-60
2022/04/21 08:12:53;;;;;;;6.88;4.00;;;;;;;;;;5019229;28;20064;-60
2022/04/21 08:15:23;;;;;;;6.55;3.00;;;;;;;;;;5018611;28;20079;-60
2022/04/21 08:17:50;;;;;;;5.63;3.30;;;;;;;;;;5021788;28;20032;-59
2022/04/21 08:20:16;;;;;;;5.57;3.67;;;;;;;;;;5025269;28;20025;-60
2022/04/21 08:22:43;;;;;;;4.55;3.25;;;;;;;;;;5021319;28;20026;-58
2022/04/21 08:33:23;;;;;;;7.20;3.17;;;;;;;;;;5024839;28;20040;-60
2022/04/21 08:35:50;;;;;;;4.70;3.17;;;;;;;;;;5025098;28;20034;-60
2022/04/21 08:38:17;;;;;;;6.45;3.28;;;;;;;;;;5030404;28;20396;-61
2022/04/21 08:41:04;;;;;;;6.82;3.15;;;;;;;;;;5028150;28;20025;-61
2022/04/21 08:43:33;;;;;;;7.82;3.55;;;;;;;;;;5023884;28;20026;-59
2022/04/21 08:45:59;;;;;;;7.20;3.33;;;;;;;;;;5024323;28;20076;-62
2022/04/21 08:48:26;;;;;;;8.40;3.30;;;;;;;;;;5025226;28;20115;-62
2022/04/21 08:50:52;;;;;;;8.85;2.88;;;;;;;;;;5025800;28;20025;-61
2022/04/21 08:53:21;;;;;;;7.47;3.10;;;;;;;;;;5027333;28;20033;-62
2022/04/21 08:55:48;;;;;;;4.82;3.00;;;;;;;;;;5023896;28;20530;-60
2022/04/21 08:58:15;;;;;;;5.55;3.00;;;;;;;;;;5023742;28;20034;-61
2022/04/21 09:00:43;;;;;;;8.52;2.88;;;;;;;;;;5023538;28;20389;-61
2022/04/21 09:03:10;;;;;;;7.70;3.60;;;;;;;;;;5025835;28;20060;-61
2022/04/21 09:05:36;;;;;;;12.90;3.65;;;;;;;;;;5024892;28;20661;-62
2022/04/21 09:08:02;;;;;;;4.68;2.67;;;;;;;;;;5024577;28;20208;-62
2022/04/21 09:10:35;;;;;;;6.57;2.72;;;;;;;;;;5028554;28;20029;-61
2022/04/21 09:13:02;;;;;;;6.68;3.22;;;;;;;;;;5025899;28;20083;-61
2022/04/21 09:15:32;;;;;;;7.50;2.90;;;;;;;;;;5028209;28;20419;-61
2022/04/21 09:17:59;;;;;;;5.55;2.90;;;;;;;;;;5024290;28;20018;-62
2022/04/21 09:20:29;;;;;;;5.57;2.67;;;;;;;;;;5024384;28;20022;-59
2022/04/21 09:22:56;;;;;;;2.88;2.20;;;;;;;;;;5028991;28;20111;-61
2022/04/21 09:25:26;;;;;;;3.72;2.33;;;;;;;;;;5021600;28;20718;-62
2022/04/21 09:27:52;;;;;;;8.27;2.95;;;;;;;;;;5029130;28;20083;-62
2022/04/21 09:30:18;;;;;;;4.68;2.80;;;;;;;;;;5023430;28;20083;-60
2022/04/21 09:32:51;;;;;;;4.65;2.72;;;;;;;;;;5026841;28;20488;-61
2022/04/21 09:35:18;;;;;;;8.38;2.47;;;;;;;;;;5018849;28;20021;-59
2022/04/21 09:37:45;;;;;;;5.03;2.60;;;;;;;;;;5029155;28;20033;-62
2022/04/21 09:40:11;;;;;;;4.15;2.58;;;;;;;;;;5023744;28;20025;-61
2022/04/21 09:42:37;;;;;;;6.57;3.00;;;;;;;;;;5021189;28;20014;-61
2022/04/21 09:47:51;;;;;;;6.55;2.78;;;;;;;;;;5018884;28;20043;-60
2022/04/21 09:50:18;;;;;;;5.43;2.67;;;;;;;;;;5024571;28;20116;-61
2022/04/21 09:52:54;;;;;;;8.77;3.10;;;;;;;;;;5025952;28;20034;-60
2022/04/21 09:55:20;;;;;;;9.18;3.47;;;;;;;;;;5021487;28;20381;-61
2022/04/21 09:57:46;;;;;;;6.13;2.80;;;;;;;;;;5027055;28;20101;-59
2022/04/21 10:00:14;;;;;;;5.18;2.67;;;;;;;;;;5023097;28;20450;-59
2022/04/21 10:02:45;;;;;;;6.82;2.83;;;;;;;;;;5023343;28;20428;-61
2022/04/21 10:05:12;;;;;;;7.30;2.60;;;;;;;;;;5023692;28;20076;-61
2022/04/21 10:07:38;;;;;;;4.15;2.75;;;;;;;;;;5038848;28;20033;-59
2022/04/21 10:10:04;;;;;;;8.55;3.10;;;;;;;;;;5026105;28;20033;-60
2022/04/21 10:12:30;;;;;;;6.32;2.72;;;;;;;;;;5023699;28;20037;-60
2022/04/21 10:14:57;;;;;;;6.65;2.88;;;;;;;;;;5027136;28;20389;-61
2022/04/21 10:17:23;;;;;;;6.00;2.50;;;;;;;;;;5023285;28;20423;-61
2022/04/21 10:19:50;;;;;;;9.40;2.97;;;;;;;;;;5027335;28;20495;-62
2022/04/21 10:22:17;;;;;;;7.97;2.67;;;;;;;;;;5022778;28;20056;-61
2022/04/21 10:24:44;;;;;;;9.10;3.00;;;;;;;;;;5024946;28;20564;-60
2022/04/21 10:27:34;;;;;;;5.82;2.55;;;;;;;;;;5023092;28;20378;-60
2022/04/21 10:30:00;;;;;;;6.68;2.55;;;;;;;;;;5026879;28;20380;-62
2022/04/21 10:32:45;;;;;;;7.38;3.15;;;;;;;;;;5023404;28;20053;-61
2022/04/21 10:35:40;;;;;;;4.28;2.55;;;;;;;;;;5024205;28;20022;-60
2022/04/21 10:38:15;;;;;;;5.78;2.80;;;;;;;;;;5028537;28;20036;-58
2022/04/21 10:40:55;;;;;;;4.55;2.78;;;;;;;;;;5025547;28;20049;-61
2022/04/21 10:43:21;;;;;;;7.00;2.53;;;;;;;;;;5025347;28;20037;-61
2022/04/21 10:46:03;;;;;;;6.00;2.30;;;;;;;;;;5023063;28;20021;-60
2022/04/21 10:48:55;;;;;;;4.13;2.35;;;;;;;;;;5023316;28;20763;-60
2022/04/21 10:51:40;;;;;;;4.28;2.13;;;;;;;;;;5024938;28;20143;-61
2022/04/21 10:59:51;;;;;;;3.75;1.95;;;;;;;;;;5019253;28;20032;-61
2022/04/21 11:02:17;;;;;;;8.88;1.85;;;;;;;;;;5022568;28;20029;-59
2022/04/21 11:04:43;;;;;;;5.03;2.20;;;;;;;;;;5023799;28;20104;-61
2022/04/21 11:07:13;;;;;;;8.05;2.67;;;;;;;;;;5022266;28;20022;-60
2022/04/21 11:09:51;;;;;;;7.15;2.05;;;;;;;;;;5029007;28;20021;-61
2022/04/21 11:12:37;;;;;;;5.28;2.20;;;;;;;;;;5022330;28;20384;-57
2022/04/21 11:15:39;;;;;;;4.20;2.00;;;;;;;;;;5026775;28;20029;-61
2022/04/21 11:18:07;;;;;;;10.52;2.30;;;;;;;;;;4997986;28;20034;-61
2022/04/21 11:20:33;;;;;;;5.40;2.13;;;;;;;;;;5018218;28;20316;-61
2022/04/21 11:22:59;;;;;;;7.30;2.70;;;;;;;;;;5027031;28;20124;-59
2022/04/21 11:25:25;;;;;;;5.10;2.30;;;;;;;;;;5023385;28;20724;-60
2022/04/21 11:27:51;;;;;;;11.60;2.50;;;;;;;;;;5022738;28;20031;-61
2022/04/21 11:30:18;;;;;;;9.82;2.72;;;;;;;;;;5021624;28;20029;-61
2022/04/21 11:32:51;;;;;;;8.98;2.47;;;;;;;;;;5024960;28;20997;-61
2022/04/21 11:35:17;;;;;;;8.10;2.60;;;;;;;;;;5023199;28;20040;-58
2022/04/21 11:37:54;;;;;;;7.35;2.70;;;;;;;;;;5019295;28;20029;-61
2022/04/21 11:40:28;;;;;;;11.45;2.70;;;;;;;;;;5024909;28;20092;-61
2022/04/21 11:42:55;;;;;;;3.55;2.05;;;;;;;;;;5022185;28;20014;-61
2022/04/21 11:45:22;;;;;;;8.10;2.33;;;;;;;;;;5023252;28;20705;-61
2022/04/21 11:47:48;;;;;;;7.53;2.63;;;;;;;;;;5026804;28;20022;-59
2022/04/21 11:50:21;;;;;;;9.00;2.90;;;;;;;;;;5021230;28;20605;-60
2022/04/21 11:52:52;;;;;;;6.72;3.00;;;;;;;;;;5024674;28;20473;-58
2022/04/21 11:55:18;;;;;;;4.30;2.67;;;;;;;;;;5014180;28;20033;-59
2022/04/21 11:57:45;;;;;;;5.03;3.22;;;;;;;;;;5025839;28;20064;-59
2022/04/21 12:00:11;;;;;;;5.18;2.78;;;;;;;;;;5020789;28;20495;-59
2022/04/21 12:08:07;;;;;;;5.18;2.92;;;;;;;;;;5024307;28;20059;-61
2022/04/21 12:10:35;;;;;;;6.05;3.13;;;;;;;;;;5019910;28;20026;-60
2022/04/21 12:13:02;;;;;;;6.07;3.20;;;;;;;;;;5019840;28;20162;-61
2022/04/21 12:15:31;;;;;;;7.68;3.35;;;;;;;;;;5021438;28;20112;-59
2022/04/21 12:18:00;;;;;;;4.63;3.25;;;;;;;;;;5021960;28;20026;-60
2022/04/21 12:20:27;;;;;;;6.25;3.40;;;;;;;;;;5025386;28;20264;-56
2022/04/21 12:22:54;;;;;;;8.82;3.63;;;;;;;;;;5021033;28;20033;-60
2022/04/21 12:25:20;;;;;;;6.13;3.35;;;;;;;;;;5021397;28;20473;-60
2022/04/21 12:27:46;;;;;;;8.63;3.60;;;;;;;;;;5022619;28;20029;-60
2022/04/21 12:30:12;;;;;;;8.02;3.80;;;;;;;;;;5021357;28;20026;-60
2022/04/21 12:32:39;;;;;;;5.32;3.80;;;;;;;;;;5023490;28;20504;-59
2022/04/21 12:35:15;;;;;;;7.18;3.92;;;;;;;;;;5022747;28;20030;-59
2022/04/21 12:37:42;;;;;;;13.73;3.80;;;;;;;;;;5021834;28;20021;-58
2022/04/21 12:40:12;;;;;;;7.80;3.78;;;;;;;;;;5025459;28;20025;-59
2022/04/21 12:42:40;;;;;;;7.97;3.67;;;;;;;;;;5023247;28;20105;-59
2022/04/21 12:45:07;;;;;;;9.55;4.50;;;;;;;;;;5024816;28;20026;-60
2022/04/21 12:47:42;;;;;;;8.23;3.80;;;;;;;;;;5021619;28;20092;-60
2022/04/21 12:50:09;;;;;;;6.93;3.65;;;;;;;;;;5024231;28;20033;-58
2022/04/21 12:52:36;;;;;;;7.70;3.67;;;;;;;;;;5022952;28;20064;-59
2022/04/21 12:55:03;;;;;;;5.00;3.00;;;;;;;;;;5019417;28;20030;-60
2022/04/21 12:57:29;;;;;;;5.90;2.88;;;;;;;;;;5021028;28;20133;-60
2022/04/21 12:59:56;;;;;;;4.85;3.05;;;;;;;;;;5020396;28;20117;-61
2022/04/21 13:02:22;;;;;;;6.13;3.10;;;;;;;;;;5021422;28;20033;-58
2022/04/21 13:04:48;;;;;;;4.68;2.90;;;;;;;;;;5023625;28;20036;-61
2022/04/21 13:07:14;;;;;;;7.75;3.10;;;;;;;;;;5020585;28;20030;-61
2022/04/21 13:09:40;;;;;;;7.28;3.63;;;;;;;;;;5021954;28;20100;-60
2022/04/21 13:12:06;;;;;;;5.50;3.00;;;;;;;;;;5029208;28;20124;-60
2022/04/21 13:14:32;;;;;;;8.90;2.55;;;;;;;;;;5025769;28;20291;-61
2022/04/21 13:16:59;;;;;;;5.72;2.55;;;;;;;;;;5028717;28;20558;-60
2022/04/21 13:19:25;;;;;;;4.85;2.28;;;;;;;;;;5034930;28;20520;-61
2022/04/21 13:21:55;;;;;;;9.15;3.00;;;;;;;;;;5025003;28;20433;-61
2022/04/21 13:24:28;;;;;;;6.47;2.65;;;;;;;;;;5025358;28;20025;-61
2022/04/21 13:26:55;;;;;;;6.13;2.47;;;;;;;;;;5024302;28;20034;-60
2022/04/21 13:29:21;;;;;;;5.72;2.72;;;;;;;;;;5029356;28;20649;-59
2022/04/21 13:34:36;;;;;;;4.90;2.75;;;;;;;;;;5029921;28;20080;-59
2022/04/21 13:37:03;;;;;;;7.88;2.95;;;;;;;;;;5023503;28;20065;-61
2022/04/21 13:39:30;;;;;;;5.82;3.15;;;;;;;;;;5023645;28;20021;-59
2022/04/21 13:41:56;;;;;;;8.38;3.00;;;;;;;;;;5024530;28;20416;-61
2022/04/21 13:44:22;;;;;;;8.55;3.35;;;;;;;;;;5027941;28;20037;-60
2022/04/21 13:46:48;;;;;;;6.25;3.00;;;;;;;;;;5024589;28;20334;-61
2022/04/21 13:49:14;;;;;;;6.25;3.13;;;;;;;;;;5027846;28;20079;-60
2022/04/21 13:51:40;;;;;;;7.82;3.00;;;;;;;;;;5023887;28;20037;-60
2022/04/21 13:54:07;;;;;;;8.75;3.33;;;;;;;;;;5023763;28;20018;-60
2022/04/21 13:56:36;;;;;;;7.15;3.35;;;;;;;;;;5025200;28;20512;-61
2022/04/21 13:59:03;;;;;;;5.78;3.20;;;;;;;;;;5026642;28;20022;-60
2022/04/21 14:01:30;;;;;;;6.38;3.10;;;;;;;;;;5023567;28;20421;-59
2022/04/21 14:03:56;;;;;;;6.72;3.50;;;;;;;;;;5024006;28;20061;-59
2022/04/21 14:06:24;;;;;;;6.82;3.22;;;;;;;;;;5023885;28;20033;-60
2022/04/21 14:08:50;;;;;;;4.38;3.05;;;;;;;;;;5023440;28;20392;-59
2022/04/21 14:11:17;;;;;;;5.35;3.10;;;;;;;;;;5021640;28;20030;-59
2022/04/21 14:13:43;;;;;;;4.85;2.83;;;;;;;;;;5022842;28;20124;-60
2022/04/21 14:16:10;;;;;;;7.38;3.42;;;;;;;;;;5028345;28;20029;-60
2022/04/21 14:18:37;;;;;;;7.90;3.53;;;;;;;;;;5023628;28;20021;-59
2022/04/21 14:21:06;;;;;;;5.60;3.42;;;;;;;;;;5023055;28;20048;-60
2022/04/21 14:23:35;;;;;;;6.50;3.72;;;;;;;;;;5023097;28;20036;-61
2022/04/21 14:26:03;;;;;;;7.10;3.55;;;;;;;;;;5021125;28;20038;-61
2022/04/21 14:28:29;;;;;;;4.95;3.70;;;;;;;;;;5023731;28;20025;-59
2022/04/21 14:30:55;;;;;;;9.50;3.90;;;;;;;;;;5028345;28;20032;-61
2022/04/21 14:33:23;;;;;;;6.65;4.05;;;;;;;;;;5023008;28;20029;-59
2022/04/21 14:35:50;;;;;;;7.38;4.22;;;;;;;;;;5022489;28;20030;-61
2022/04/21 14:44:27;;;;;;;9.68;4.57;;;;;;;;;;5028588;28;20130;-59
2022/04/21 14:46:39;;;;;;;6.82;4.45;;;;;;;;;;5021369;28;20719;-60
2022/04/21 14:49:06;;;;;;;10.45;4.93;;;;;;;;;;5026969;28;20017;-60
2022/04/21 14:51:32;;;;;;;5.95;4.35;;;;;;;;;;5022864;28;20025;-59
2022/04/21 14:53:58;;;;;;;7.88;4.60;;;;;;;;;;5027085;28;20532;-61
2022/04/21 14:56:24;;;;;;;8.20;4.70;;;;;;;;;;5018464;28;20080;-59
2022/04/21 14:58:50;;;;;;;7.80;4.53;;;;;;;;;;5022529;28;20028;-61
2022/04/21 15:01:17;;;;;;;9.90;4.68;;;;;;;;;;5022544;28;20575;-59
2022/04/21 15:03:43;;;;;;;7.80;4.65;;;;;;;;;;5026167;28;20028;-60
2022/04/21 15:06:09;;;;;;;8.93;4.70;;;;;;;;;;5022557;28;20033;-58
2022/04/21 15:08:35;;;;;;;10.23;5.30;;;;;;;;;;5020018;28;20034;-60
2022/04/21 15:11:01;;;;;;;10.70;5.32;;;;;;;;;;5016213;28;20029;-59
2022/04/21 15:13:27;;;;;;;9.35;4.90;;;;;;;;;;5021985;28;20033;-60
2022/04/21 15:15:53;;;;;;;12.25;5.60;;;;;;;;;;5022301;28;20492;-59
2022/04/21 15:18:19;;;;;;;9.60;5.07;;;;;;;;;;5022209;28;20032;-60
2022/04/21 15:20:46;;;;;;;9.63;5.40;;;;;;;;;;5018849;28;20607;-59
2022/04/21 15:23:12;;;;;;;11.90;5.93;;;;;;;;;;5020807;28;20192;-57
2022/04/21 15:25:39;;;;;;;9.02;5.75;;;;;;;;;;5019714;28;20559;-62
2022/04/21 15:28:09;;;;;;;13.27;5.55;;;;;;;;;;5022019;28;20033;-60
2022/04/21 15:30:38;;;;;;;11.98;5.10;;;;;;;;;;5014695;28;20117;-62
2022/04/21 15:33:05;;;;;;;7.10;5.30;;;;;;;;;;5020650;28;20083;-61
2022/04/21 15:35:31;;;;;;;9.27;4.90;;;;;;;;;;5021539;28;20029;-60
2022/04/21 15:37:57;;;;;;;10.48;5.07;;;;;;;;;;5020132;28;20033;-61
2022/04/21 15:40:23;;;;;;;6.65;4.60;;;;;;;;;;5021626;28;20029;-58
2022/04/21 15:42:49;;;;;;;11.23;4.82;;;;;;;;;;5021968;28;20061;-60